sensor_id;sensor_type;location;lat;lon;timestamp;pressure;altitude;pressure_sealevel;temperature;humidity
78845;BME280;68195;50.854;2.860;2023-07-22T00:01:34;101374.28;;;16.81;87.47
78845;BME280;68195;50.854;2.860;2023-07-22T00:03:59;101367.31;;;16.80;87.26
78845;BME280;68195;50.854;2.860;2023-07-22T00:06:29;101403.69;;;17.02;87.58
78845;BME280;68195;50.854;2.860;2023-07-22T00:08:57;101391.84;;;16.95;87.33
78845;BME280;68195;50.854;2.860;2023-07-22T00:11:25;101380.00;;;16.88;88.33
78845;BME280;68195;50.854;2.860;2023-07-22T00:13:53;101356.50;;;16.71;88.11
78845;BME280;68195;50.854;2.860;2023-07-22T00:16:18;101385.19;;;16.90;88.45
78845;BME280;68195;50.854;2.860;2023-07-22T00:18:47;101391.28;;;16.90;88.56
78845;BME280;68195;50.854;2.860;2023-07-22T00:21:17;101388.00;;;16.87;88.52
78845;BME280;68195;50.854;2.860;2023-07-22T00:23:42;101367.69;;;16.74;88.55
78845;BME280;68195;50.854;2.860;2023-07-22T00:26:11;101377.88;;;16.80;89.08
78845;BME280;68195;50.854;2.860;2023-07-22T00:28:38;101389.50;;;16.91;89.24
78845;BME280;68195;50.854;2.860;2023-07-22T00:31:06;101348.44;;;16.59;89.61
78845;BME280;68195;50.854;2.860;2023-07-22T00:33:37;101343.56;;;16.53;89.34
78845;BME280;68195;50.854;2.860;2023-07-22T00:36:05;101382.00;;;16.85;89.17
78845;BME280;68195;50.854;2.860;2023-07-22T00:38:33;101339.88;;;16.56;89.53
78845;BME280;68195;50.854;2.860;2023-07-22T00:41:01;101386.09;;;16.89;89.60
78845;BME280;68195;50.854;2.860;2023-07-22T00:43:30;101388.00;;;16.87;89.85
78845;BME280;68195;50.854;2.860;2023-07-22T00:45:55;101357.53;;;16.68;89.76
78845;BME280;68195;50.854;2.860;2023-07-22T00:48:25;101379.56;;;16.81;89.40
78845;BME280;68195;50.854;2.860;2023-07-22T00:50:57;101351.09;;;16.59;90.15
78845;BME280;68195;50.854;2.860;2023-07-22T00:53:25;101354.47;;;16.61;90.29
78845;BME280;68195;50.854;2.860;2023-07-22T00:55:54;101344.41;;;16.54;90.51
78845;BME280;68195;50.854;2.860;2023-07-22T00:58:22;101370.44;;;16.73;90.77
78845;BME280;68195;50.854;2.860;2023-07-22T01:00:47;101376.75;;;16.70;90.55
78845;BME280;68195;50.854;2.860;2023-07-22T01:03:13;101352.13;;;16.57;90.73
78845;BME280;68195;50.854;2.860;2023-07-22T01:05:39;101314.56;;;16.26;90.64
78845;BME280;68195;50.854;2.860;2023-07-22T01:08:07;101369.53;;;16.59;91.08
78845;BME280;68195;50.854;2.860;2023-07-22T01:10:35;101334.03;;;16.38;90.81
78845;BME280;68195;50.854;2.860;2023-07-22T01:13:00;101329.16;;;16.32;90.79
78845;BME280;68195;50.854;2.860;2023-07-22T01:15:26;101345.03;;;16.45;91.52
78845;BME280;68195;50.854;2.860;2023-07-22T01:17:54;101344.19;;;16.44;91.53
78845;BME280;68195;50.854;2.860;2023-07-22T01:20:24;101317.94;;;16.28;91.61
78845;BME280;68195;50.854;2.860;2023-07-22T01:22:53;101332.22;;;16.38;92.00
78845;BME280;68195;50.854;2.860;2023-07-22T01:25:24;101322.06;;;16.32;92.35
78845;BME280;68195;50.854;2.860;2023-07-22T01:27:52;101298.06;;;16.10;92.11
78845;BME280;68195;50.854;2.860;2023-07-22T01:30:19;101341.84;;;16.39;92.17
78845;BME280;68195;50.854;2.860;2023-07-22T01:32:52;101281.06;;;16.01;91.23
78845;BME280;68195;50.854;2.860;2023-07-22T01:35:18;101324.38;;;16.24;92.02
78845;BME280;68195;50.854;2.860;2023-07-22T01:37:46;101327.88;;;16.25;92.38
78845;BME280;68195;50.854;2.860;2023-07-22T01:40:12;101323.38;;;16.12;92.31
78845;BME280;68195;50.854;2.860;2023-07-22T01:42:41;101297.78;;;16.00;92.15
78845;BME280;68195;50.854;2.860;2023-07-22T01:45:07;101319.16;;;16.10;92.41
78845;BME280;68195;50.854;2.860;2023-07-22T01:47:36;101305.63;;;16.02;92.50
78845;BME280;68195;50.854;2.860;2023-07-22T01:50:03;101331.28;;;16.12;92.95
78845;BME280;68195;50.854;2.860;2023-07-22T01:52:29;101302.63;;;15.93;93.07
78845;BME280;68195;50.854;2.860;2023-07-22T01:54:57;101300.72;;;15.95;93.47
78845;BME280;68195;50.854;2.860;2023-07-22T01:57:24;101269.66;;;15.73;93.19
78845;BME280;68195;50.854;2.860;2023-07-22T01:59:55;101325.84;;;16.01;93.73
78845;BME280;68195;50.854;2.860;2023-07-22T02:02:23;101324.25;;;15.98;93.35
78845;BME280;68195;50.854;2.860;2023-07-22T02:04:48;101230.84;;;15.34;93.95
78845;BME280;68195;50.854;2.860;2023-07-22T02:07:20;101262.22;;;15.51;93.78
78845;BME280;68195;50.854;2.860;2023-07-22T02:09:46;101327.28;;;15.92;93.34
78845;BME280;68195;50.854;2.860;2023-07-22T02:12:20;101322.94;;;15.91;93.94
78845;BME280;68195;50.854;2.860;2023-07-22T02:14:48;101295.28;;;15.70;94.26
78845;BME280;68195;50.854;2.860;2023-07-22T02:17:15;101283.66;;;15.59;94.23
78845;BME280;68195;50.854;2.860;2023-07-22T02:19:41;101281.88;;;15.60;94.43
78845;BME280;68195;50.854;2.860;2023-07-22T02:22:06;101294.19;;;15.59;94.29
78845;BME280;68195;50.854;2.860;2023-07-22T02:24:34;101316.84;;;15.76;94.49
78845;BME280;68195;50.854;2.860;2023-07-22T02:27:02;101273.88;;;15.47;94.46
78845;BME280;68195;50.854;2.860;2023-07-22T02:29:27;101314.50;;;15.72;94.68
78845;BME280;68195;50.854;2.860;2023-07-22T02:31:55;101318.53;;;15.63;95.46
78845;BME280;68195;50.854;2.860;2023-07-22T02:34:23;101279.13;;;15.33;95.97
78845;BME280;68195;50.854;2.860;2023-07-22T02:36:50;101299.84;;;15.53;95.50
78845;BME280;68195;50.854;2.860;2023-07-22T02:39:16;101240.63;;;15.17;94.90
78845;BME280;68195;50.854;2.860;2023-07-22T02:41:41;101298.31;;;15.49;95.31
78845;BME280;68195;50.854;2.860;2023-07-22T02:44:07;101261.22;;;15.25;95.05
78845;BME280;68195;50.854;2.860;2023-07-22T02:46:33;101307.91;;;15.50;95.55
78845;BME280;68195;50.854;2.860;2023-07-22T02:49:01;101289.28;;;15.39;95.48
78845;BME280;68195;50.854;2.860;2023-07-22T02:51:27;101295.31;;;15.41;95.54
78845;BME280;68195;50.854;2.860;2023-07-22T02:53:52;101292.97;;;15.36;95.53
78845;BME280;68195;50.854;2.860;2023-07-22T02:56:20;101283.94;;;15.26;95.69
78845;BME280;68195;50.854;2.860;2023-07-22T02:58:46;101259.22;;;15.14;95.78
78845;BME280;68195;50.854;2.860;2023-07-22T03:01:11;101290.72;;;15.30;96.19
78845;BME280;68195;50.854;2.860;2023-07-22T03:03:39;101292.31;;;15.33;95.97
78845;BME280;68195;50.854;2.860;2023-07-22T03:06:05;101286.78;;;15.23;95.61
78845;BME280;68195;50.854;2.860;2023-07-22T03:08:30;101297.00;;;15.28;95.86
78845;BME280;68195;50.854;2.860;2023-07-22T03:10:58;101272.84;;;15.07;96.28
78845;BME280;68195;50.854;2.860;2023-07-22T03:13:24;101300.69;;;15.25;96.45
78845;BME280;68195;50.854;2.860;2023-07-22T03:15:49;101303.47;;;15.22;96.26
78845;BME280;68195;50.854;2.860;2023-07-22T03:18:14;101248.31;;;14.92;96.77
78845;BME280;68195;50.854;2.860;2023-07-22T03:20:44;101292.47;;;15.15;96.57
78845;BME280;68195;50.854;2.860;2023-07-22T03:23:10;101279.06;;;15.06;96.97
78845;BME280;68195;50.854;2.860;2023-07-22T03:25:37;101302.25;;;15.13;96.74
78845;BME280;68195;50.854;2.860;2023-07-22T03:28:04;101301.78;;;15.07;96.91
78845;BME280;68195;50.854;2.860;2023-07-22T03:30:30;101307.72;;;15.10;97.03
78845;BME280;68195;50.854;2.860;2023-07-22T03:33:00;101303.66;;;15.05;96.83
78845;BME280;68195;50.854;2.860;2023-07-22T03:35:28;101290.97;;;14.97;97.37
78845;BME280;68195;50.854;2.860;2023-07-22T03:37:53;101311.53;;;15.05;97.41
78845;BME280;68195;50.854;2.860;2023-07-22T03:40:24;101310.69;;;15.04;97.32
78845;BME280;68195;50.854;2.860;2023-07-22T03:42:57;101297.06;;;14.97;97.40
78845;BME280;68195;50.854;2.860;2023-07-22T03:45:25;101301.66;;;14.94;98.21
78845;BME280;68195;50.854;2.860;2023-07-22T03:47:57;101298.38;;;14.90;98.04
78845;BME280;68195;50.854;2.860;2023-07-22T03:50:23;101300.34;;;14.87;97.95
78845;BME280;68195;50.854;2.860;2023-07-22T03:52:51;101311.25;;;14.95;98.44
78845;BME280;68195;50.854;2.860;2023-07-22T03:55:19;101312.38;;;14.91;98.37
78845;BME280;68195;50.854;2.860;2023-07-22T03:57:48;101310.66;;;14.90;98.75
78845;BME280;68195;50.854;2.860;2023-07-22T04:00:16;101260.84;;;14.58;99.04
78845;BME280;68195;50.854;2.860;2023-07-22T04:02:41;101312.25;;;14.78;99.09
78845;BME280;68195;50.854;2.860;2023-07-22T04:05:09;101309.69;;;14.76;99.31
78845;BME280;68195;50.854;2.860;2023-07-22T04:07:35;101279.22;;;14.58;99.75
78845;BME280;68195;50.854;2.860;2023-07-22T04:10:01;101313.16;;;14.77;100.00
78845;BME280;68195;50.854;2.860;2023-07-22T04:12:26;101285.25;;;14.60;100.00
78845;BME280;68195;50.854;2.860;2023-07-22T04:14:54;101317.59;;;14.76;99.83
78845;BME280;68195;50.854;2.860;2023-07-22T04:17:19;101277.69;;;14.54;100.00
78845;BME280;68195;50.854;2.860;2023-07-22T04:19:44;101316.75;;;14.76;100.00
78845;BME280;68195;50.854;2.860;2023-07-22T04:22:10;101306.66;;;14.68;100.00
78845;BME280;68195;50.854;2.860;2023-07-22T04:24:35;101317.50;;;14.78;100.00
78845;BME280;68195;50.854;2.860;2023-07-22T04:27:06;101301.66;;;14.64;100.00
78845;BME280;68195;50.854;2.860;2023-07-22T04:29:31;101319.44;;;14.74;100.00
78845;BME280;68195;50.854;2.860;2023-07-22T04:31:58;101321.91;;;14.77;100.00
78845;BME280;68195;50.854;2.860;2023-07-22T04:34:24;101303.97;;;14.54;100.00
78845;BME280;68195;50.854;2.860;2023-07-22T04:36:53;101308.53;;;14.66;100.00
78845;BME280;68195;50.854;2.860;2023-07-22T04:39:23;101305.13;;;14.64;100.00
78845;BME280;68195;50.854;2.860;2023-07-22T04:41:51;101325.47;;;14.76;100.00
78845;BME280;68195;50.854;2.860;2023-07-22T04:44:18;101322.06;;;14.74;100.00
78845;BME280;68195;50.854;2.860;2023-07-22T04:46:45;101285.66;;;14.52;100.00
78845;BME280;68195;50.854;2.860;2023-07-22T04:49:13;101328.00;;;14.78;100.00
78845;BME280;68195;50.854;2.860;2023-07-22T04:51:43;101334.31;;;14.75;100.00
78845;BME280;68195;50.854;2.860;2023-07-22T04:54:10;101311.16;;;14.66;100.00
78845;BME280;68195;50.854;2.860;2023-07-22T04:56:36;101328.84;;;14.79;100.00
78845;BME280;68195;50.854;2.860;2023-07-22T04:59:01;101312.31;;;14.76;100.00
78845;BME280;68195;50.854;2.860;2023-07-22T05:01:26;101315.44;;;14.83;100.00
78845;BME280;68195;50.854;2.860;2023-07-22T05:03:52;101319.59;;;14.87;100.00
78845;BME280;68195;50.854;2.860;2023-07-22T05:06:20;101312.63;;;14.86;100.00
78845;BME280;68195;50.854;2.860;2023-07-22T05:08:45;101326.84;;;14.98;100.00
78845;BME280;68195;50.854;2.860;2023-07-22T05:11:15;101294.66;;;14.79;100.00
78845;BME280;68195;50.854;2.860;2023-07-22T05:13:46;101291.69;;;14.85;100.00
78845;BME280;68195;50.854;2.860;2023-07-22T05:16:11;101317.00;;;15.02;100.00
78845;BME280;68195;50.854;2.860;2023-07-22T05:18:36;101327.25;;;15.06;100.00
78845;BME280;68195;50.854;2.860;2023-07-22T05:21:03;101321.50;;;15.00;100.00
78845;BME280;68195;50.854;2.860;2023-07-22T05:23:29;101321.97;;;15.06;100.00
78845;BME280;68195;50.854;2.860;2023-07-22T05:25:54;101328.56;;;15.13;100.00
78845;BME280;68195;50.854;2.860;2023-07-22T05:28:19;101299.13;;;14.92;100.00
78845;BME280;68195;50.854;2.860;2023-07-22T05:30:45;101326.03;;;15.12;100.00
78845;BME280;68195;50.854;2.860;2023-07-22T05:33:13;101272.44;;;14.84;100.00
78845;BME280;68195;50.854;2.860;2023-07-22T05:35:38;101326.69;;;15.15;100.00
78845;BME280;68195;50.854;2.860;2023-07-22T05:38:09;101267.06;;;14.86;100.00
78845;BME280;68195;50.854;2.860;2023-07-22T05:40:38;101297.75;;;15.01;100.00
78845;BME280;68195;50.854;2.860;2023-07-22T05:43:04;101252.31;;;14.83;100.00
78845;BME280;68195;50.854;2.860;2023-07-22T05:45:29;101320.78;;;15.26;100.00
78845;BME280;68195;50.854;2.860;2023-07-22T05:47:55;101312.97;;;15.25;100.00
78845;BME280;68195;50.854;2.860;2023-07-22T05:50:24;101288.25;;;15.13;100.00
78845;BME280;68195;50.854;2.860;2023-07-22T05:52:52;101288.72;;;15.20;100.00
78845;BME280;68195;50.854;2.860;2023-07-22T05:55:17;101318.25;;;15.39;100.00
78845;BME280;68195;50.854;2.860;2023-07-22T05:57:48;101268.81;;;15.15;100.00
78845;BME280;68195;50.854;2.860;2023-07-22T06:00:13;101287.22;;;15.30;100.00
78845;BME280;68195;50.854;2.860;2023-07-22T06:02:42;101301.78;;;15.35;100.00
78845;BME280;68195;50.854;2.860;2023-07-22T06:05:10;101307.56;;;15.42;100.00
78845;BME280;68195;50.854;2.860;2023-07-22T06:07:38;101298.16;;;15.38;100.00
78845;BME280;68195;50.854;2.860;2023-07-22T06:10:07;101277.00;;;15.25;100.00
78845;BME280;68195;50.854;2.860;2023-07-22T06:12:33;101313.28;;;15.49;100.00
78845;BME280;68195;50.854;2.860;2023-07-22T06:14:59;101282.66;;;15.33;100.00
78845;BME280;68195;50.854;2.860;2023-07-22T06:17:24;101316.47;;;15.54;100.00
78845;BME280;68195;50.854;2.860;2023-07-22T06:19:52;101296.53;;;15.35;100.00
78845;BME280;68195;50.854;2.860;2023-07-22T06:22:24;101286.88;;;15.36;100.00
78845;BME280;68195;50.854;2.860;2023-07-22T06:24:52;101275.66;;;15.32;100.00
78845;BME280;68195;50.854;2.860;2023-07-22T06:27:17;101313.16;;;15.65;100.00
78845;BME280;68195;50.854;2.860;2023-07-22T06:29:45;101280.81;;;15.48;100.00
78845;BME280;68195;50.854;2.860;2023-07-22T06:32:11;101317.03;;;15.73;100.00
78845;BME280;68195;50.854;2.860;2023-07-22T06:34:36;101273.50;;;15.53;100.00
78845;BME280;68195;50.854;2.860;2023-07-22T06:37:01;101309.13;;;15.88;100.00
78845;BME280;68195;50.854;2.860;2023-07-22T06:39:29;101273.88;;;15.62;100.00
78845;BME280;68195;50.854;2.860;2023-07-22T06:41:55;101268.19;;;15.68;100.00
78845;BME280;68195;50.854;2.860;2023-07-22T06:44:20;101308.63;;;15.95;100.00
78845;BME280;68195;50.854;2.860;2023-07-22T06:46:46;101304.13;;;15.97;100.00
78845;BME280;68195;50.854;2.860;2023-07-22T06:49:14;101268.72;;;15.74;100.00
78845;BME280;68195;50.854;2.860;2023-07-22T06:51:41;101300.09;;;15.92;100.00
78845;BME280;68195;50.854;2.860;2023-07-22T06:54:09;101285.31;;;15.89;100.00
78845;BME280;68195;50.854;2.860;2023-07-22T06:56:42;101305.03;;;16.11;100.00
78845;BME280;68195;50.854;2.860;2023-07-22T06:59:07;101301.06;;;16.18;100.00
78845;BME280;68195;50.854;2.860;2023-07-22T07:01:33;101287.97;;;16.16;100.00
78845;BME280;68195;50.854;2.860;2023-07-22T07:03:58;101301.06;;;16.18;100.00
78845;BME280;68195;50.854;2.860;2023-07-22T07:06:30;101293.25;;;16.16;100.00
78845;BME280;68195;50.854;2.860;2023-07-22T07:08:59;101271.34;;;16.16;100.00
78845;BME280;68195;50.854;2.860;2023-07-22T07:11:25;101295.88;;;16.44;100.00
78845;BME280;68195;50.854;2.860;2023-07-22T07:13:52;101284.47;;;16.43;100.00
78845;BME280;68195;50.854;2.860;2023-07-22T07:16:29;101281.84;;;16.43;100.00
78845;BME280;68195;50.854;2.860;2023-07-22T07:18:57;101256.13;;;16.47;100.00
78845;BME280;68195;50.854;2.860;2023-07-22T07:21:25;101294.38;;;16.79;100.00
78845;BME280;68195;50.854;2.860;2023-07-22T07:23:51;101294.31;;;16.94;99.91
78845;BME280;68195;50.854;2.860;2023-07-22T07:26:19;101277.53;;;16.95;99.15
78845;BME280;68195;50.854;2.860;2023-07-22T07:28:46;101298.88;;;17.17;98.61
78845;BME280;68195;50.854;2.860;2023-07-22T07:31:12;101281.88;;;17.21;98.19
78845;BME280;68195;50.854;2.860;2023-07-22T07:33:37;101258.41;;;17.17;98.02
78845;BME280;68195;50.854;2.860;2023-07-22T07:36:03;101278.91;;;17.39;97.02
78845;BME280;68195;50.854;2.860;2023-07-22T07:38:29;101284.38;;;17.49;97.13
78845;BME280;68195;50.854;2.860;2023-07-22T07:41:00;101293.00;;;17.63;96.57
78845;BME280;68195;50.854;2.860;2023-07-22T07:43:26;101294.91;;;17.61;96.15
78845;BME280;68195;50.854;2.860;2023-07-22T07:46:15;101282.66;;;17.73;95.35
78845;BME280;68195;50.854;2.860;2023-07-22T07:48:47;101295.00;;;17.73;95.47
78845;BME280;68195;50.854;2.860;2023-07-22T07:51:16;101253.72;;;17.59;95.01
78845;BME280;68195;50.854;2.860;2023-07-22T07:53:43;101252.06;;;17.45;95.38
78845;BME280;68195;50.854;2.860;2023-07-22T07:56:09;101306.53;;;17.72;94.50
78845;BME280;68195;50.854;2.860;2023-07-22T07:58:36;101257.13;;;17.48;94.45
78845;BME280;68195;50.854;2.860;2023-07-22T08:01:01;101296.47;;;17.77;93.72
78845;BME280;68195;50.854;2.860;2023-07-22T08:03:35;101302.63;;;17.65;94.12
78845;BME280;68195;50.854;2.860;2023-07-22T08:06:01;101302.72;;;17.76;93.72
78845;BME280;68195;50.854;2.860;2023-07-22T08:08:27;101267.34;;;17.66;93.30
78845;BME280;68195;50.854;2.860;2023-07-22T08:10:58;101303.31;;;17.92;92.60
78845;BME280;68195;50.854;2.860;2023-07-22T08:13:24;101268.38;;;17.76;91.61
78845;BME280;68195;50.854;2.860;2023-07-22T08:15:50;101299.28;;;17.99;91.04
78845;BME280;68195;50.854;2.860;2023-07-22T08:18:15;101249.34;;;17.71;91.04
78845;BME280;68195;50.854;2.860;2023-07-22T08:20:40;101300.69;;;17.92;90.97
78845;BME280;68195;50.854;2.860;2023-07-22T08:23:08;101261.28;;;17.76;91.06
78845;BME280;68195;50.854;2.860;2023-07-22T08:25:33;101259.81;;;17.85;90.76
78845;BME280;68195;50.854;2.860;2023-07-22T08:28:01;101291.03;;;18.04;90.82
78845;BME280;68195;50.854;2.860;2023-07-22T08:30:27;101225.41;;;17.61;90.96
78845;BME280;68195;50.854;2.860;2023-07-22T08:32:57;101257.06;;;17.87;90.39
78845;BME280;68195;50.854;2.860;2023-07-22T08:35:22;101280.81;;;18.23;89.84
78845;BME280;68195;50.854;2.860;2023-07-22T08:37:50;101266.34;;;18.16;89.26
78845;BME280;68195;50.854;2.860;2023-07-22T08:40:18;101207.28;;;18.04;88.39
78845;BME280;68195;50.854;2.860;2023-07-22T08:42:47;101250.47;;;18.40;88.50
78845;BME280;68195;50.854;2.860;2023-07-22T08:45:16;101228.34;;;18.53;86.17
78845;BME280;68195;50.854;2.860;2023-07-22T08:47:46;101273.97;;;19.03;85.44
78845;BME280;68195;50.854;2.860;2023-07-22T08:50:22;101268.44;;;19.29;84.35
78845;BME280;68195;50.854;2.860;2023-07-22T08:52:50;101239.56;;;19.25;83.55
78845;BME280;68195;50.854;2.860;2023-07-22T08:55:16;101267.38;;;19.42;82.51
78845;BME280;68195;50.854;2.860;2023-07-22T08:57:44;101246.03;;;19.33;82.44
78845;BME280;68195;50.854;2.860;2023-07-22T09:00:12;101251.13;;;19.36;80.99
78845;BME280;68195;50.854;2.860;2023-07-22T09:02:38;101243.06;;;19.37;80.41
78845;BME280;68195;50.854;2.860;2023-07-22T09:05:05;101238.72;;;19.36;81.39
78845;BME280;68195;50.854;2.860;2023-07-22T09:07:33;101230.03;;;19.34;79.98
78845;BME280;68195;50.854;2.860;2023-07-22T09:09:59;101264.09;;;19.84;78.21
78845;BME280;68195;50.854;2.860;2023-07-22T09:12:25;101222.94;;;19.46;78.06
78845;BME280;68195;50.854;2.860;2023-07-22T09:14:53;101268.44;;;19.85;77.94
78845;BME280;68195;50.854;2.860;2023-07-22T09:17:19;101209.53;;;19.81;76.71
78845;BME280;68195;50.854;2.860;2023-07-22T09:19:44;101251.44;;;20.20;75.02
78845;BME280;68195;50.854;2.860;2023-07-22T09:22:12;101220.19;;;20.02;76.06
78845;BME280;68195;50.854;2.860;2023-07-22T09:24:37;101239.66;;;20.13;75.06
78845;BME280;68195;50.854;2.860;2023-07-22T09:27:03;101223.22;;;19.86;74.46
78845;BME280;68195;50.854;2.860;2023-07-22T09:29:35;101242.22;;;20.03;75.50
78845;BME280;68195;50.854;2.860;2023-07-22T09:32:03;101254.94;;;20.20;75.57
78845;BME280;68195;50.854;2.860;2023-07-22T09:34:29;101272.53;;;20.21;nan
78845;BME280;68195;50.854;2.860;2023-07-22T09:36:57;101158.66;;;19.44;74.04
78845;BME280;68195;50.854;2.860;2023-07-22T09:39:23;101271.50;;;20.01;73.52
78845;BME280;68195;50.854;2.860;2023-07-22T09:41:49;101266.47;;;19.98;73.91
78845;BME280;68195;50.854;2.860;2023-07-22T09:44:15;101213.03;;;19.59;74.05
78845;BME280;68195;50.854;2.860;2023-07-22T09:46:46;101259.63;;;19.84;73.66
78845;BME280;68195;50.854;2.860;2023-07-22T09:49:15;101165.88;;;19.42;73.96
78845;BME280;68195;50.854;2.860;2023-07-22T09:51:44;101251.13;;;20.02;70.17
78845;BME280;68195;50.854;2.860;2023-07-22T09:54:12;101225.38;;;20.25;71.68
78845;BME280;68195;50.854;2.860;2023-07-22T09:56:45;101262.75;;;20.75;69.21
78845;BME280;68195;50.854;2.860;2023-07-22T09:59:11;101230.91;;;20.54;68.28
78845;BME280;68195;50.854;2.860;2023-07-22T10:01:40;101257.72;;;20.72;68.76
78845;BME280;68195;50.854;2.860;2023-07-22T10:04:10;101259.66;;;20.70;69.18
78845;BME280;68195;50.854;2.860;2023-07-22T10:06:36;101232.22;;;20.06;69.99
78845;BME280;68195;50.854;2.860;2023-07-22T10:09:04;101251.00;;;20.36;70.76
78845;BME280;68195;50.854;2.860;2023-07-22T10:11:34;101226.66;;;20.10;70.51
78845;BME280;68195;50.854;2.860;2023-07-22T10:14:03;101214.72;;;19.83;71.97
78845;BME280;68195;50.854;2.860;2023-07-22T10:16:30;101268.81;;;20.24;71.42
78845;BME280;68195;50.854;2.860;2023-07-22T10:18:56;101259.88;;;19.81;74.20
78845;BME280;68195;50.854;2.860;2023-07-22T10:23:54;101296.16;;;19.81;78.37
78845;BME280;68195;50.854;2.860;2023-07-22T10:26:20;101274.84;;;19.71;77.97
78845;BME280;68195;50.854;2.860;2023-07-22T10:28:48;101282.91;;;19.47;77.52
78845;BME280;68195;50.854;2.860;2023-07-22T10:31:14;101276.63;;;19.37;78.02
78845;BME280;68195;50.854;2.860;2023-07-22T10:33:46;101226.81;;;19.08;75.44
78845;BME280;68195;50.854;2.860;2023-07-22T10:36:16;101280.25;;;19.36;75.24
78845;BME280;68195;50.854;2.860;2023-07-22T10:38:42;101280.38;;;19.23;74.81
78845;BME280;68195;50.854;2.860;2023-07-22T10:41:18;101250.41;;;19.22;75.27
78845;BME280;68195;50.854;2.860;2023-07-22T10:43:54;101262.56;;;19.25;75.53
78845;BME280;68195;50.854;2.860;2023-07-22T10:46:37;101287.69;;;19.31;76.24
78845;BME280;68195;50.854;2.860;2023-07-22T10:49:16;101230.03;;;18.89;76.68
78845;BME280;68195;50.854;2.860;2023-07-22T10:51:47;101287.84;;;19.40;77.15
78845;BME280;68195;50.854;2.860;2023-07-22T10:54:14;101285.28;;;19.39;76.82
78845;BME280;68195;50.854;2.860;2023-07-22T10:56:43;101279.16;;;19.38;76.71
78845;BME280;68195;50.854;2.860;2023-07-22T10:59:14;101220.53;;;19.09;76.42
78845;BME280;68195;50.854;2.860;2023-07-22T11:01:43;101262.69;;;19.46;76.71
78845;BME280;68195;50.854;2.860;2023-07-22T11:06:52;101259.75;;;19.72;75.91
78845;BME280;68195;50.854;2.860;2023-07-22T11:12:09;101240.13;;;19.85;74.58
78845;BME280;68195;50.854;2.860;2023-07-22T11:14:49;101263.09;;;19.96;73.85
78845;BME280;68195;50.854;2.860;2023-07-22T11:17:17;101260.53;;;20.06;73.67
78845;BME280;68195;50.854;2.860;2023-07-22T11:19:43;101255.09;;;20.07;72.13
78845;BME280;68195;50.854;2.860;2023-07-22T11:22:11;101244.09;;;19.80;70.21
78845;BME280;68195;50.854;2.860;2023-07-22T11:24:39;101220.50;;;19.65;70.67
78845;BME280;68195;50.854;2.860;2023-07-22T11:27:08;101257.78;;;19.96;69.79
78845;BME280;68195;50.854;2.860;2023-07-22T11:29:36;101235.31;;;19.79;68.78
78845;BME280;68195;50.854;2.860;2023-07-22T11:32:02;101242.47;;;20.00;66.96
78845;BME280;68195;50.854;2.860;2023-07-22T11:34:28;101230.25;;;20.20;67.56
78845;BME280;68195;50.854;2.860;2023-07-22T11:36:56;101222.50;;;20.28;67.01
78845;BME280;68195;50.854;2.860;2023-07-22T11:39:26;101217.56;;;20.44;64.86
78845;BME280;68195;50.854;2.860;2023-07-22T11:41:54;101236.88;;;20.67;64.98
78845;BME280;68195;50.854;2.860;2023-07-22T11:44:26;101218.72;;;20.63;62.16
78845;BME280;68195;50.854;2.860;2023-07-22T11:52:05;101245.19;;;21.05;61.25
78845;BME280;68195;50.854;2.860;2023-07-22T11:54:34;101230.91;;;20.96;59.71
78845;BME280;68195;50.854;2.860;2023-07-22T11:59:52;101230.28;;;21.14;59.53
78845;BME280;68195;50.854;2.860;2023-07-22T12:02:19;101232.81;;;21.25;59.67
78845;BME280;68195;50.854;2.860;2023-07-22T12:04:57;101227.50;;;21.25;58.81
78845;BME280;68195;50.854;2.860;2023-07-22T12:07:24;101228.41;;;21.35;58.98
78845;BME280;68195;50.854;2.860;2023-07-22T12:09:49;101201.66;;;21.27;57.93
78845;BME280;68195;50.854;2.860;2023-07-22T12:12:18;101210.31;;;21.19;58.03
78845;BME280;68195;50.854;2.860;2023-07-22T12:14:45;101205.88;;;21.29;57.99
78845;BME280;68195;50.854;2.860;2023-07-22T12:17:13;101212.88;;;21.30;58.42
78845;BME280;68195;50.854;2.860;2023-07-22T12:19:51;101178.03;;;21.24;58.49
78845;BME280;68195;50.854;2.860;2023-07-22T12:22:17;101163.56;;;21.07;59.02
78845;BME280;68195;50.854;2.860;2023-07-22T12:24:42;101198.97;;;21.17;59.87
78845;BME280;68195;50.854;2.860;2023-07-22T12:27:10;101171.59;;;21.17;60.77
78845;BME280;68195;50.854;2.860;2023-07-22T12:29:40;101190.88;;;21.19;61.21
78845;BME280;68195;50.854;2.860;2023-07-22T12:32:05;101235.00;;;21.41;61.76
78845;BME280;68195;50.854;2.860;2023-07-22T12:34:31;101211.97;;;21.20;61.42
78845;BME280;68195;50.854;2.860;2023-07-22T12:36:59;101249.66;;;21.35;61.95
78845;BME280;68195;50.854;2.860;2023-07-22T12:39:28;101164.88;;;20.82;62.98
78845;BME280;68195;50.854;2.860;2023-07-22T12:41:57;101137.25;;;20.42;63.78
78845;BME280;68195;50.854;2.860;2023-07-22T12:44:24;101221.16;;;21.06;64.51
78845;BME280;68195;50.854;2.860;2023-07-22T12:46:53;101222.09;;;20.96;64.47
78845;BME280;68195;50.854;2.860;2023-07-22T12:49:21;101248.47;;;21.18;64.62
78845;BME280;68195;50.854;2.860;2023-07-22T12:51:48;101248.75;;;21.15;64.86
78845;BME280;68195;50.854;2.860;2023-07-22T12:54:14;101191.16;;;20.85;64.71
78845;BME280;68195;50.854;2.860;2023-07-22T12:56:39;101171.81;;;20.73;65.46
78845;BME280;68195;50.854;2.860;2023-07-22T12:59:10;101192.69;;;20.87;65.37
78845;BME280;68195;50.854;2.860;2023-07-22T13:01:36;101234.63;;;21.15;64.63
78845;BME280;68195;50.854;2.860;2023-07-22T13:04:06;101212.63;;;21.03;64.17
78845;BME280;68195;50.854;2.860;2023-07-22T13:06:34;101222.09;;;20.96;64.18